sensor_id;sensor_type;location;lat;lon;timestamp;temperature;humidity
4324;DHT22;2175;51.018;6.994;2023-05-19T00:01:26;10.50;99.90
4324;DHT22;2175;51.018;6.994;2023-05-19T00:03:54;10.40;99.90
4324;DHT22;2175;51.018;6.994;2023-05-19T00:06:27;10.40;99.90
4324;DHT22;2175;51.018;6.994;2023-05-19T00:11:23;10.50;99.90
4324;DHT22;2175;51.018;6.994;2023-05-19T00:13:51;10.60;99.90
4324;DHT22;2175;51.018;6.994;2023-05-19T00:16:17;10.60;99.90
4324;DHT22;2175;51.018;6.994;2023-05-19T00:18:43;10.60;99.90
4324;DHT22;2175;51.018;6.994;2023-05-19T00:21:08;10.60;99.90
4324;DHT22;2175;51.018;6.994;2023-05-19T00:23:34;10.60;99.90
4324;DHT22;2175;51.018;6.994;2023-05-19T00:26:00;10.60;99.90
4324;DHT22;2175;51.018;6.994;2023-05-19T00:28:25;10.50;99.90
4324;DHT22;2175;51.018;6.994;2023-05-19T00:30:51;10.50;99.90
4324;DHT22;2175;51.018;6.994;2023-05-19T00:33:16;10.50;99.90
4324;DHT22;2175;51.018;6.994;2023-05-19T00:35:42;10.40;99.90
4324;DHT22;2175;51.018;6.994;2023-05-19T00:38:08;10.40;99.90
4324;DHT22;2175;51.018;6.994;2023-05-19T00:40:34;10.40;99.90
4324;DHT22;2175;51.018;6.994;2023-05-19T00:43:03;10.30;99.90
4324;DHT22;2175;51.018;6.994;2023-05-19T00:45:33;10.40;99.90
4324;DHT22;2175;51.018;6.994;2023-05-19T00:47:59;10.20;99.90
4324;DHT22;2175;51.018;6.994;2023-05-19T00:50:25;10.10;99.90
4324;DHT22;2175;51.018;6.994;2023-05-19T00:52:56;10.10;99.90
4324;DHT22;2175;51.018;6.994;2023-05-19T00:55:22;10.00;99.90
4324;DHT22;2175;51.018;6.994;2023-05-19T00:57:50;10.10;99.90
4324;DHT22;2175;51.018;6.994;2023-05-19T01:00:16;10.00;99.90
4324;DHT22;2175;51.018;6.994;2023-05-19T01:02:42;10.00;99.90
4324;DHT22;2175;51.018;6.994;2023-05-19T01:05:08;9.90;99.90
4324;DHT22;2175;51.018;6.994;2023-05-19T01:07:34;10.00;99.90
4324;DHT22;2175;51.018;6.994;2023-05-19T01:10:01;9.90;99.90
4324;DHT22;2175;51.018;6.994;2023-05-19T01:12:27;9.90;99.90
4324;DHT22;2175;51.018;6.994;2023-05-19T01:14:53;9.90;99.90
4324;DHT22;2175;51.018;6.994;2023-05-19T01:17:28;9.80;99.90
4324;DHT22;2175;51.018;6.994;2023-05-19T01:23:05;9.80;99.90
4324;DHT22;2175;51.018;6.994;2023-05-19T01:31:04;9.60;99.90
4324;DHT22;2175;51.018;6.994;2023-05-19T01:33:32;9.50;99.90
4324;DHT22;2175;51.018;6.994;2023-05-19T01:35:58;9.50;99.90
4324;DHT22;2175;51.018;6.994;2023-05-19T01:38:24;9.50;99.90
4324;DHT22;2175;51.018;6.994;2023-05-19T01:40:53;9.40;99.90
4324;DHT22;2175;51.018;6.994;2023-05-19T01:43:22;9.30;99.90
4324;DHT22;2175;51.018;6.994;2023-05-19T01:45:49;9.30;99.90
4324;DHT22;2175;51.018;6.994;2023-05-19T01:48:16;9.20;99.90
4324;DHT22;2175;51.018;6.994;2023-05-19T01:50:42;9.10;99.90
4324;DHT22;2175;51.018;6.994;2023-05-19T01:53:08;9.10;99.90
4324;DHT22;2175;51.018;6.994;2023-05-19T01:55:49;9.00;99.90
4324;DHT22;2175;51.018;6.994;2023-05-19T02:06:35;8.90;99.90
4324;DHT22;2175;51.018;6.994;2023-05-19T02:09:11;8.80;99.90
4324;DHT22;2175;51.018;6.994;2023-05-19T02:15:13;8.80;99.90
4324;DHT22;2175;51.018;6.994;2023-05-19T02:17:14;8.90;99.90
4324;DHT22;2175;51.018;6.994;2023-05-19T02:19:42;8.90;99.90
4324;DHT22;2175;51.018;6.994;2023-05-19T02:22:08;8.90;99.90
4324;DHT22;2175;51.018;6.994;2023-05-19T02:24:34;8.80;99.90
4324;DHT22;2175;51.018;6.994;2023-05-19T02:27:02;8.80;99.90
4324;DHT22;2175;51.018;6.994;2023-05-19T02:29:28;8.70;99.90
4324;DHT22;2175;51.018;6.994;2023-05-19T02:31:53;8.70;99.90
4324;DHT22;2175;51.018;6.994;2023-05-19T02:34:19;8.60;99.90
4324;DHT22;2175;51.018;6.994;2023-05-19T02:36:45;8.60;99.90
4324;DHT22;2175;51.018;6.994;2023-05-19T02:39:14;8.50;99.90
4324;DHT22;2175;51.018;6.994;2023-05-19T02:41:40;8.50;99.90
4324;DHT22;2175;51.018;6.994;2023-05-19T02:44:05;8.50;99.90
4324;DHT22;2175;51.018;6.994;2023-05-19T02:46:32;8.60;99.90
4324;DHT22;2175;51.018;6.994;2023-05-19T02:48:57;8.60;99.90
4324;DHT22;2175;51.018;6.994;2023-05-19T02:51:23;8.50;99.90
4324;DHT22;2175;51.018;6.994;2023-05-19T02:53:49;8.40;99.90
4324;DHT22;2175;51.018;6.994;2023-05-19T02:56:15;8.50;99.90
4324;DHT22;2175;51.018;6.994;2023-05-19T02:58:40;8.50;99.90
4324;DHT22;2175;51.018;6.994;2023-05-19T03:01:07;8.40;99.90
4324;DHT22;2175;51.018;6.994;2023-05-19T03:03:33;8.30;99.90
4324;DHT22;2175;51.018;6.994;2023-05-19T03:05:59;8.40;99.90
4324;DHT22;2175;51.018;6.994;2023-05-19T03:08:26;8.30;99.90
4324;DHT22;2175;51.018;6.994;2023-05-19T03:10:52;8.30;99.90
4324;DHT22;2175;51.018;6.994;2023-05-19T03:13:17;8.30;99.90
4324;DHT22;2175;51.018;6.994;2023-05-19T03:15:43;8.30;99.90
4324;DHT22;2175;51.018;6.994;2023-05-19T03:18:09;8.30;99.90
4324;DHT22;2175;51.018;6.994;2023-05-19T03:20:36;8.30;99.90
4324;DHT22;2175;51.018;6.994;2023-05-19T03:23:02;8.20;99.90
4324;DHT22;2175;51.018;6.994;2023-05-19T03:25:28;8.00;99.90
4324;DHT22;2175;51.018;6.994;2023-05-19T03:27:54;8.00;99.90
4324;DHT22;2175;51.018;6.994;2023-05-19T03:30:20;8.00;99.90
4324;DHT22;2175;51.018;6.994;2023-05-19T03:32:46;8.10;99.90
4324;DHT22;2175;51.018;6.994;2023-05-19T03:35:12;8.10;99.90
4324;DHT22;2175;51.018;6.994;2023-05-19T03:37:37;8.20;99.90
4324;DHT22;2175;51.018;6.994;2023-05-19T03:40:03;8.20;99.90
4324;DHT22;2175;51.018;6.994;2023-05-19T03:42:30;8.20;99.90
4324;DHT22;2175;51.018;6.994;2023-05-19T03:44:55;8.20;99.90
4324;DHT22;2175;51.018;6.994;2023-05-19T03:47:21;8.20;99.90
4324;DHT22;2175;51.018;6.994;2023-05-19T03:49:47;8.20;99.90
4324;DHT22;2175;51.018;6.994;2023-05-19T03:52:12;8.20;99.90
4324;DHT22;2175;51.018;6.994;2023-05-19T03:54:38;8.20;99.90
4324;DHT22;2175;51.018;6.994;2023-05-19T03:57:04;8.20;99.90
4324;DHT22;2175;51.018;6.994;2023-05-19T03:59:30;8.20;99.90
4324;DHT22;2175;51.018;6.994;2023-05-19T04:01:56;8.20;99.90
4324;DHT22;2175;51.018;6.994;2023-05-19T04:04:22;8.10;99.90
4324;DHT22;2175;51.018;6.994;2023-05-19T04:06:48;8.20;99.90
4324;DHT22;2175;51.018;6.994;2023-05-19T04:09:14;8.10;99.90
4324;DHT22;2175;51.018;6.994;2023-05-19T04:11:40;8.00;99.90
4324;DHT22;2175;51.018;6.994;2023-05-19T04:14:07;8.00;99.90
4324;DHT22;2175;51.018;6.994;2023-05-19T04:16:33;8.00;99.90
4324;DHT22;2175;51.018;6.994;2023-05-19T04:18:59;8.00;99.90
4324;DHT22;2175;51.018;6.994;2023-05-19T04:21:24;8.10;99.90
4324;DHT22;2175;51.018;6.994;2023-05-19T04:23:50;8.10;99.90
4324;DHT22;2175;51.018;6.994;2023-05-19T04:26:16;8.00;99.90
4324;DHT22;2175;51.018;6.994;2023-05-19T04:28:43;8.10;99.90
4324;DHT22;2175;51.018;6.994;2023-05-19T04:31:12;8.10;99.90
4324;DHT22;2175;51.018;6.994;2023-05-19T04:33:39;8.20;99.90
4324;DHT22;2175;51.018;6.994;2023-05-19T04:36:05;8.30;99.90
4324;DHT22;2175;51.018;6.994;2023-05-19T04:38:36;8.30;99.90
4324;DHT22;2175;51.018;6.994;2023-05-19T04:41:04;8.30;99.90
4324;DHT22;2175;51.018;6.994;2023-05-19T04:43:30;8.40;99.90
4324;DHT22;2175;51.018;6.994;2023-05-19T04:45:56;8.40;99.90
4324;DHT22;2175;51.018;6.994;2023-05-19T04:48:22;8.40;99.90
4324;DHT22;2175;51.018;6.994;2023-05-19T04:50:48;8.50;99.90
4324;DHT22;2175;51.018;6.994;2023-05-19T04:53:16;8.50;99.90
4324;DHT22;2175;51.018;6.994;2023-05-19T04:55:42;8.50;99.90
4324;DHT22;2175;51.018;6.994;2023-05-19T04:58:08;8.50;99.90
4324;DHT22;2175;51.018;6.994;2023-05-19T05:00:35;8.50;99.90
4324;DHT22;2175;51.018;6.994;2023-05-19T05:03:01;8.50;99.90
4324;DHT22;2175;51.018;6.994;2023-05-19T05:05:29;8.50;99.90
4324;DHT22;2175;51.018;6.994;2023-05-19T05:07:55;8.60;99.90
4324;DHT22;2175;51.018;6.994;2023-05-19T05:10:21;8.60;99.90
4324;DHT22;2175;51.018;6.994;2023-05-19T05:12:47;8.70;99.90
4324;DHT22;2175;51.018;6.994;2023-05-19T05:15:13;8.70;99.90
4324;DHT22;2175;51.018;6.994;2023-05-19T05:17:39;8.80;99.90
4324;DHT22;2175;51.018;6.994;2023-05-19T05:20:06;9.00;99.90
4324;DHT22;2175;51.018;6.994;2023-05-19T05:22:32;9.00;99.90
4324;DHT22;2175;51.018;6.994;2023-05-19T05:24:58;9.10;99.90
4324;DHT22;2175;51.018;6.994;2023-05-19T05:27:23;9.20;99.90
4324;DHT22;2175;51.018;6.994;2023-05-19T05:29:49;9.40;99.90
4324;DHT22;2175;51.018;6.994;2023-05-19T05:32:15;9.60;99.90
4324;DHT22;2175;51.018;6.994;2023-05-19T05:34:41;9.60;99.90
4324;DHT22;2175;51.018;6.994;2023-05-19T05:37:07;9.70;99.90
4324;DHT22;2175;51.018;6.994;2023-05-19T05:39:32;9.70;99.90
4324;DHT22;2175;51.018;6.994;2023-05-19T05:41:58;9.80;99.90
4324;DHT22;2175;51.018;6.994;2023-05-19T05:44:23;9.90;99.90
4324;DHT22;2175;51.018;6.994;2023-05-19T05:46:49;9.90;99.90
4324;DHT22;2175;51.018;6.994;2023-05-19T05:49:15;9.90;99.90
4324;DHT22;2175;51.018;6.994;2023-05-19T05:51:41;10.10;99.90
4324;DHT22;2175;51.018;6.994;2023-05-19T05:54:07;10.20;99.90
4324;DHT22;2175;51.018;6.994;2023-05-19T05:56:34;10.20;99.90
4324;DHT22;2175;51.018;6.994;2023-05-19T05:59:01;10.30;99.90
4324;DHT22;2175;51.018;6.994;2023-05-19T06:01:27;10.40;99.90
4324;DHT22;2175;51.018;6.994;2023-05-19T06:03:54;10.50;99.90
4324;DHT22;2175;51.018;6.994;2023-05-19T06:06:20;10.60;99.90
4324;DHT22;2175;51.018;6.994;2023-05-19T06:08:46;10.50;99.90
4324;DHT22;2175;51.018;6.994;2023-05-19T06:11:11;10.70;99.90
4324;DHT22;2175;51.018;6.994;2023-05-19T06:13:37;10.90;99.90
4324;DHT22;2175;51.018;6.994;2023-05-19T06:16:04;11.00;99.90
4324;DHT22;2175;51.018;6.994;2023-05-19T06:18:30;11.00;99.90
4324;DHT22;2175;51.018;6.994;2023-05-19T06:20:55;11.00;99.90
4324;DHT22;2175;51.018;6.994;2023-05-19T06:23:21;11.20;99.90
4324;DHT22;2175;51.018;6.994;2023-05-19T06:25:46;11.20;99.90
4324;DHT22;2175;51.018;6.994;2023-05-19T06:28:13;11.30;99.90
4324;DHT22;2175;51.018;6.994;2023-05-19T06:30:39;11.40;99.90
4324;DHT22;2175;51.018;6.994;2023-05-19T06:33:04;11.50;99.90
4324;DHT22;2175;51.018;6.994;2023-05-19T06:35:30;11.60;99.90
4324;DHT22;2175;51.018;6.994;2023-05-19T06:37:56;11.70;99.90
4324;DHT22;2175;51.018;6.994;2023-05-19T06:40:22;11.70;99.90
4324;DHT22;2175;51.018;6.994;2023-05-19T06:42:48;11.80;99.90
4324;DHT22;2175;51.018;6.994;2023-05-19T06:45:13;11.90;99.90
4324;DHT22;2175;51.018;6.994;2023-05-19T06:47:39;12.00;99.90
4324;DHT22;2175;51.018;6.994;2023-05-19T06:50:09;12.10;99.90
4324;DHT22;2175;51.018;6.994;2023-05-19T06:52:35;12.10;99.90
4324;DHT22;2175;51.018;6.994;2023-05-19T06:55:01;12.30;99.90
4324;DHT22;2175;51.018;6.994;2023-05-19T06:57:26;12.40;99.90
4324;DHT22;2175;51.018;6.994;2023-05-19T06:59:52;12.50;99.90
4324;DHT22;2175;51.018;6.994;2023-05-19T07:02:17;12.60;99.90
4324;DHT22;2175;51.018;6.994;2023-05-19T07:04:43;12.80;99.90
4324;DHT22;2175;51.018;6.994;2023-05-19T07:07:08;13.00;99.90
4324;DHT22;2175;51.018;6.994;2023-05-19T07:09:34;13.20;99.90
4324;DHT22;2175;51.018;6.994;2023-05-19T07:12:00;13.40;99.90
4324;DHT22;2175;51.018;6.994;2023-05-19T07:14:26;13.80;99.90
4324;DHT22;2175;51.018;6.994;2023-05-19T07:16:52;14.10;99.90
4324;DHT22;2175;51.018;6.994;2023-05-19T07:19:17;14.30;99.90
4324;DHT22;2175;51.018;6.994;2023-05-19T07:21:44;14.40;99.90
4324;DHT22;2175;51.018;6.994;2023-05-19T07:24:10;14.60;99.90
4324;DHT22;2175;51.018;6.994;2023-05-19T07:26:35;14.70;99.90
4324;DHT22;2175;51.018;6.994;2023-05-19T07:29:01;15.00;99.90
4324;DHT22;2175;51.018;6.994;2023-05-19T07:31:27;15.00;99.90
4324;DHT22;2175;51.018;6.994;2023-05-19T07:33:52;15.00;99.90
4324;DHT22;2175;51.018;6.994;2023-05-19T07:36:18;15.20;99.90
4324;DHT22;2175;51.018;6.994;2023-05-19T07:38:45;15.40;99.90
4324;DHT22;2175;51.018;6.994;2023-05-19T07:41:11;15.60;99.90
4324;DHT22;2175;51.018;6.994;2023-05-19T07:43:36;15.80;99.90
4324;DHT22;2175;51.018;6.994;2023-05-19T07:46:02;16.10;99.90
4324;DHT22;2175;51.018;6.994;2023-05-19T07:48:28;16.50;99.90
4324;DHT22;2175;51.018;6.994;2023-05-19T07:50:54;16.60;99.90
4324;DHT22;2175;51.018;6.994;2023-05-19T07:53:19;16.50;99.90
4324;DHT22;2175;51.018;6.994;2023-05-19T07:55:47;16.50;99.90
4324;DHT22;2175;51.018;6.994;2023-05-19T07:58:13;16.60;99.90
4324;DHT22;2175;51.018;6.994;2023-05-19T08:00:38;16.60;99.90
4324;DHT22;2175;51.018;6.994;2023-05-19T08:03:06;16.60;99.90
4324;DHT22;2175;51.018;6.994;2023-05-19T08:05:33;16.50;99.90
4324;DHT22;2175;51.018;6.994;2023-05-19T08:07:59;16.60;99.90
4324;DHT22;2175;51.018;6.994;2023-05-19T08:10:25;16.80;99.90
4324;DHT22;2175;51.018;6.994;2023-05-19T08:12:50;17.00;99.90
4324;DHT22;2175;51.018;6.994;2023-05-19T08:15:16;17.20;99.90
4324;DHT22;2175;51.018;6.994;2023-05-19T08:17:43;17.30;99.90
4324;DHT22;2175;51.018;6.994;2023-05-19T08:20:09;17.70;99.90
4324;DHT22;2175;51.018;6.994;2023-05-19T08:22:35;17.50;99.90
4324;DHT22;2175;51.018;6.994;2023-05-19T08:25:01;17.50;99.90
4324;DHT22;2175;51.018;6.994;2023-05-19T08:27:30;17.60;99.90
4324;DHT22;2175;51.018;6.994;2023-05-19T08:29:56;17.70;99.90
4324;DHT22;2175;51.018;6.994;2023-05-19T08:32:22;18.10;99.90
4324;DHT22;2175;51.018;6.994;2023-05-19T08:34:47;18.00;99.90
4324;DHT22;2175;51.018;6.994;2023-05-19T08:37:13;18.10;99.90
4324;DHT22;2175;51.018;6.994;2023-05-19T08:39:39;17.60;99.90
4324;DHT22;2175;51.018;6.994;2023-05-19T08:42:05;17.20;99.90
4324;DHT22;2175;51.018;6.994;2023-05-19T08:44:32;17.10;99.90
4324;DHT22;2175;51.018;6.994;2023-05-19T08:47:02;17.60;99.90
4324;DHT22;2175;51.018;6.994;2023-05-19T08:49:32;17.80;99.90
4324;DHT22;2175;51.018;6.994;2023-05-19T08:52:08;18.30;99.90
4324;DHT22;2175;51.018;6.994;2023-05-19T08:54:51;18.70;99.90
4324;DHT22;2175;51.018;6.994;2023-05-19T08:57:20;19.20;99.90
4324;DHT22;2175;51.018;6.994;2023-05-19T08:59:46;19.60;99.90
4324;DHT22;2175;51.018;6.994;2023-05-19T09:02:14;19.90;99.90
4324;DHT22;2175;51.018;6.994;2023-05-19T09:04:40;20.20;99.90
4324;DHT22;2175;51.018;6.994;2023-05-19T09:07:11;20.50;99.90
4324;DHT22;2175;51.018;6.994;2023-05-19T09:09:37;21.00;99.90
4324;DHT22;2175;51.018;6.994;2023-05-19T09:12:07;21.20;99.90
4324;DHT22;2175;51.018;6.994;2023-05-19T09:14:33;21.40;99.90
4324;DHT22;2175;51.018;6.994;2023-05-19T09:17:00;21.60;99.90
4324;DHT22;2175;51.018;6.994;2023-05-19T09:19:27;21.70;99.90
4324;DHT22;2175;51.018;6.994;2023-05-19T09:22:00;22.20;99.90
4324;DHT22;2175;51.018;6.994;2023-05-19T09:24:30;22.50;99.80
4324;DHT22;2175;51.018;6.994;2023-05-19T09:26:56;22.70;99.90
4324;DHT22;2175;51.018;6.994;2023-05-19T09:29:22;22.70;92.10
4324;DHT22;2175;51.018;6.994;2023-05-19T09:31:53;23.00;97.90
4324;DHT22;2175;51.018;6.994;2023-05-19T09:34:21;22.90;99.90
4324;DHT22;2175;51.018;6.994;2023-05-19T09:36:49;23.10;91.50
4324;DHT22;2175;51.018;6.994;2023-05-19T09:39:17;23.00;92.70
4324;DHT22;2175;51.018;6.994;2023-05-19T09:41:43;23.20;99.70
4324;DHT22;2175;51.018;6.994;2023-05-19T09:44:27;23.00;94.90
4324;DHT22;2175;51.018;6.994;2023-05-19T09:46:54;22.90;89.70
4324;DHT22;2175;51.018;6.994;2023-05-19T09:49:21;23.10;92.80
4324;DHT22;2175;51.018;6.994;2023-05-19T09:51:57;23.30;93.50
4324;DHT22;2175;51.018;6.994;2023-05-19T09:54:24;23.20;93.70
4324;DHT22;2175;51.018;6.994;2023-05-19T09:57:00;22.90;96.60
4324;DHT22;2175;51.018;6.994;2023-05-19T09:59:27;22.70;92.00
4324;DHT22;2175;51.018;6.994;2023-05-19T10:01:58;22.90;96.10
4324;DHT22;2175;51.018;6.994;2023-05-19T10:04:25;22.70;95.50
4324;DHT22;2175;51.018;6.994;2023-05-19T10:06:55;22.50;99.90
4324;DHT22;2175;51.018;6.994;2023-05-19T10:09:27;22.50;94.00
4324;DHT22;2175;51.018;6.994;2023-05-19T10:11:54;21.80;99.90
4324;DHT22;2175;51.018;6.994;2023-05-19T10:14:26;21.20;93.10
4324;DHT22;2175;51.018;6.994;2023-05-19T10:16:53;21.10;99.90
4324;DHT22;2175;51.018;6.994;2023-05-19T10:19:24;20.50;93.30
4324;DHT22;2175;51.018;6.994;2023-05-19T10:21:51;20.20;99.90
4324;DHT22;2175;51.018;6.994;2023-05-19T10:24:17;20.60;99.90
4324;DHT22;2175;51.018;6.994;2023-05-19T10:27:02;21.00;98.10
4324;DHT22;2175;51.018;6.994;2023-05-19T10:29:33;21.40;99.90
4324;DHT22;2175;51.018;6.994;2023-05-19T10:32:03;21.80;94.60
4324;DHT22;2175;51.018;6.994;2023-05-19T10:35:17;21.90;94.70
4324;DHT22;2175;51.018;6.994;2023-05-19T10:40:50;22.20;95.20
4324;DHT22;2175;51.018;6.994;2023-05-19T10:46:11;21.00;99.90
4324;DHT22;2175;51.018;6.994;2023-05-19T10:48:36;21.00;96.70
4324;DHT22;2175;51.018;6.994;2023-05-19T10:51:02;21.20;95.50
4324;DHT22;2175;51.018;6.994;2023-05-19T10:53:32;21.10;93.30
4324;DHT22;2175;51.018;6.994;2023-05-19T10:56:01;21.40;99.90
4324;DHT22;2175;51.018;6.994;2023-05-19T11:01:14;21.20;91.30
4324;DHT22;2175;51.018;6.994;2023-05-19T11:03:51;21.10;92.20
4324;DHT22;2175;51.018;6.994;2023-05-19T11:08:51;21.20;87.80
4324;DHT22;2175;51.018;6.994;2023-05-19T11:11:19;21.20;88.90
4324;DHT22;2175;51.018;6.994;2023-05-19T11:13:55;21.30;94.10
4324;DHT22;2175;51.018;6.994;2023-05-19T11:16:33;21.30;93.10
4324;DHT22;2175;51.018;6.994;2023-05-19T11:18:59;21.30;96.10
4324;DHT22;2175;51.018;6.994;2023-05-19T11:21:47;21.20;91.50
4324;DHT22;2175;51.018;6.994;2023-05-19T11:24:43;21.10;90.00
4324;DHT22;2175;51.018;6.994;2023-05-19T11:27:32;21.00;80.70
4324;DHT22;2175;51.018;6.994;2023-05-19T11:32:35;21.00;90.00
4324;DHT22;2175;51.018;6.994;2023-05-19T11:35:07;21.00;82.90
4324;DHT22;2175;51.018;6.994;2023-05-19T11:37:33;20.90;85.90
4324;DHT22;2175;51.018;6.994;2023-05-19T11:40:03;20.80;86.30
4324;DHT22;2175;51.018;6.994;2023-05-19T11:42:33;20.90;84.70
4324;DHT22;2175;51.018;6.994;2023-05-19T11:44:59;20.80;82.60
4324;DHT22;2175;51.018;6.994;2023-05-19T11:47:25;20.60;84.30
4324;DHT22;2175;51.018;6.994;2023-05-19T11:49:53;20.30;91.40
4324;DHT22;2175;51.018;6.994;2023-05-19T11:52:23;20.20;90.60
4324;DHT22;2175;51.018;6.994;2023-05-19T11:54:49;20.20;91.10
4324;DHT22;2175;51.018;6.994;2023-05-19T11:57:15;20.10;84.90
4324;DHT22;2175;51.018;6.994;2023-05-19T11:59:41;20.30;84.90
4324;DHT22;2175;51.018;6.994;2023-05-19T12:02:24;20.40;92.90
4324;DHT22;2175;51.018;6.994;2023-05-19T12:04:52;20.40;91.20
4324;DHT22;2175;51.018;6.994;2023-05-19T12:07:19;20.20;88.20
4324;DHT22;2175;51.018;6.994;2023-05-19T12:09:48;20.00;90.20
4324;DHT22;2175;51.018;6.994;2023-05-19T12:12:21;19.90;92.40
4324;DHT22;2175;51.018;6.994;2023-05-19T12:14:49;19.90;90.70
4324;DHT22;2175;51.018;6.994;2023-05-19T12:17:16;20.00;90.30
4324;DHT22;2175;51.018;6.994;2023-05-19T12:19:43;20.10;89.50
4324;DHT22;2175;51.018;6.994;2023-05-19T12:22:10;20.30;90.00
4324;DHT22;2175;51.018;6.994;2023-05-19T12:24:38;20.30;87.20
4324;DHT22;2175;51.018;6.994;2023-05-19T12:27:23;20.40;92.40
4324;DHT22;2175;51.018;6.994;2023-05-19T12:29:51;20.30;92.70
4324;DHT22;2175;51.018;6.994;2023-05-19T12:32:17;20.20;91.20
4324;DHT22;2175;51.018;6.994;2023-05-19T12:34:45;20.10;92.50
4324;DHT22;2175;51.018;6.994;2023-05-19T12:37:31;19.80;88.70
4324;DHT22;2175;51.018;6.994;2023-05-19T12:40:05;19.60;94.80
4324;DHT22;2175;51.018;6.994;2023-05-19T12:42:55;19.70;93.00
4324;DHT22;2175;51.018;6.994;2023-05-19T12:46:10;19.80;91.70
4324;DHT22;2175;51.018;6.994;2023-05-19T12:48:57;20.00;90.20
4324;DHT22;2175;51.018;6.994;2023-05-19T12:52:09;20.00;93.30
4324;DHT22;2175;51.018;6.994;2023-05-19T12:55:17;20.00;90.10
4324;DHT22;2175;51.018;6.994;2023-05-19T12:58:33;20.20;90.40
4324;DHT22;2175;51.018;6.994;2023-05-19T13:01:15;20.20;83.90
4324;DHT22;2175;51.018;6.994;2023-05-19T13:03:42;20.30;87.90
4324;DHT22;2175;51.018;6.994;2023-05-19T13:06:17;20.20;88.90
4324;DHT22;2175;51.018;6.994;2023-05-19T13:08:56;20.10;97.40
4324;DHT22;2175;51.018;6.994;2023-05-19T13:11:22;20.20;92.60
4324;DHT22;2175;51.018;6.994;2023-05-19T13:13:48;20.30;92.30
4324;DHT22;2175;51.018;6.994;2023-05-19T13:16:15;20.30;88.50
4324;DHT22;2175;51.018;6.994;2023-05-19T13:18:40;20.30;87.20
4324;DHT22;2175;51.018;6.994;2023-05-19T13:21:06;20.30;89.30
4324;DHT22;2175;51.018;6.994;2023-05-19T13:23:40;20.40;90.90
4324;DHT22;2175;51.018;6.994;2023-05-19T13:26:12;20.50;91.80
4324;DHT22;2175;51.018;6.994;2023-05-19T13:28:39;20.40;85.30
4324;DHT22;2175;51.018;6.994;2023-05-19T13:31:04;20.40;91.00
4324;DHT22;2175;51.018;6.994;2023-05-19T13:33:31;20.50;87.60
4324;DHT22;2175;51.018;6.994;2023-05-19T13:36:20;20.60;86.90
4324;DHT22;2175;51.018;6.994;2023-05-19T13:39:26;20.60;83.30
4324;DHT22;2175;51.018;6.994;2023-05-19T13:41:52;20.50;85.90
4324;DHT22;2175;51.018;6.994;2023-05-19T13:44:22;20.70;87.00
4324;DHT22;2175;51.018;6.994;2023-05-19T13:47:08;20.70;86.80
4324;DHT22;2175;51.018;6.994;2023-05-19T13:49:34;20.80;87.70
4324;DHT22;2175;51.018;6.994;2023-05-19T13:51:59;20.80;86.80
4324;DHT22;2175;51.018;6.994;2023-05-19T13:54:25;20.80;83.50
4324;DHT22;2175;51.018;6.994;2023-05-19T13:56:51;20.80;84.80
4324;DHT22;2175;51.018;6.994;2023-05-19T13:59:17;20.80;86.20
4324;DHT22;2175;51.018;6.994;2023-05-19T14:01:43;20.80;89.50
4324;DHT22;2175;51.018;6.994;2023-05-19T14:04:09;20.90;93.00
4324;DHT22;2175;51.018;6.994;2023-05-19T14:06:35;20.90;90.30
4324;DHT22;2175;51.018;6.994;2023-05-19T14:09:04;21.00;91.10
4324;DHT22;2175;51.018;6.994;2023-05-19T14:11:30;20.90;88.20
4324;DHT22;2175;51.018;6.994;2023-05-19T14:13:56;20.60;89.00
4324;DHT22;2175;51.018;6.994;2023-05-19T14:16:22;20.40;88.10
4324;DHT22;2175;51.018;6.994;2023-05-19T14:18:51;20.30;95.10
4324;DHT22;2175;51.018;6.994;2023-05-19T14:21:17;20.40;94.60
4324;DHT22;2175;51.018;6.994;2023-05-19T14:23:42;20.40;91.70
4324;DHT22;2175;51.018;6.994;2023-05-19T14:26:08;20.50;90.90
4324;DHT22;2175;51.018;6.994;2023-05-19T14:28:37;20.70;90.30
4324;DHT22;2175;51.018;6.994;2023-05-19T14:31:02;20.90;90.50
4324;DHT22;2175;51.018;6.994;2023-05-19T14:33:28;21.00;87.00
4324;DHT22;2175;51.018;6.994;2023-05-19T14:35:54;21.00;87.50
4324;DHT22;2175;51.018;6.994;2023-05-19T14:38:20;20.80;87.30
4324;DHT22;2175;51.018;6.994;2023-05-19T14:40:46;20.90;88.50
4324;DHT22;2175;51.018;6.994;2023-05-19T14:43:13;20.90;90.20
4324;DHT22;2175;51.018;6.994;2023-05-19T14:45:38;20.80;92.30
4324;DHT22;2175;51.018;6.994;2023-05-19T14:48:06;20.70;92.00
4324;DHT22;2175;51.018;6.994;2023-05-19T14:50:32;20.60;90.00
4324;DHT22;2175;51.018;6.994;2023-05-19T14:52:57;20.40;87.70
4324;DHT22;2175;51.018;6.994;2023-05-19T14:55:23;20.40;91.00
4324;DHT22;2175;51.018;6.994;2023-05-19T14:57:49;20.40;90.20
4324;DHT22;2175;51.018;6.994;2023-05-19T15:00:15;20.50;89.20
4324;DHT22;2175;51.018;6.994;2023-05-19T15:02:42;20.50;88.30
4324;DHT22;2175;51.018;6.994;2023-05-19T15:05:08;20.50;87.60
4324;DHT22;2175;51.018;6.994;2023-05-19T15:07:33;20.60;90.00
4324;DHT22;2175;51.018;6.994;2023-05-19T15:09:59;20.60;87.00
4324;DHT22;2175;51.018;6.994;2023-05-19T15:12:26;20.70;85.50
4324;DHT22;2175;51.018;6.994;2023-05-19T15:14:51;20.70;86.90
4324;DHT22;2175;51.018;6.994;2023-05-19T15:17:17;20.80;88.00
4324;DHT22;2175;51.018;6.994;2023-05-19T15:19:43;20.80;87.60
4324;DHT22;2175;51.018;6.994;2023-05-19T15:22:08;20.80;87.30
4324;DHT22;2175;51.018;6.994;2023-05-19T15:24:34;20.80;84.40
4324;DHT22;2175;51.018;6.994;2023-05-19T15:27:00;20.70;90.00
4324;DHT22;2175;51.018;6.994;2023-05-19T15:29:26;20.50;88.70
4324;DHT22;2175;51.018;6.994;2023-05-19T15:31:52;20.50;88.90
4324;DHT22;2175;51.018;6.994;2023-05-19T15:34:19;20.40;86.30
4324;DHT22;2175;51.018;6.994;2023-05-19T15:36:45;20.50;88.70
4324;DHT22;2175;51.018;6.994;2023-05-19T15:39:12;20.50;85.60
4324;DHT22;2175;51.018;6.994;2023-05-19T15:41:37;20.40;84.90
4324;DHT22;2175;51.018;6.994;2023-05-19T15:44:03;20.50;87.80
4324;DHT22;2175;51.018;6.994;2023-05-19T15:46:31;20.50;82.80
4324;DHT22;2175;51.018;6.994;2023-05-19T15:48:57;20.50;83.60
4324;DHT22;2175;51.018;6.994;2023-05-19T15:51:23;20.50;81.60
4324;DHT22;2175;51.018;6.994;2023-05-19T15:53:49;20.60;83.10
4324;DHT22;2175;51.018;6.994;2023-05-19T15:56:15;20.60;85.80
4324;DHT22;2175;51.018;6.994;2023-05-19T15:58:40;20.60;83.50
4324;DHT22;2175;51.018;6.994;2023-05-19T16:01:06;20.60;83.30
4324;DHT22;2175;51.018;6.994;2023-05-19T16:03:32;20.70;83.60
4324;DHT22;2175;51.018;6.994;2023-05-19T16:05:58;20.60;82.30
4324;DHT22;2175;51.018;6.994;2023-05-19T16:08:25;20.60;83.50
4324;DHT22;2175;51.018;6.994;2023-05-19T16:10:51;20.70;82.80
4324;DHT22;2175;51.018;6.994;2023-05-19T16:13:16;20.70;81.70
4324;DHT22;2175;51.018;6.994;2023-05-19T16:15:42;20.60;80.60
4324;DHT22;2175;51.018;6.994;2023-05-19T16:18:08;20.60;82.20
4324;DHT22;2175;51.018;6.994;2023-05-19T16:20:33;20.60;85.00
4324;DHT22;2175;51.018;6.994;2023-05-19T16:22:59;20.60;83.50
4324;DHT22;2175;51.018;6.994;2023-05-19T16:25:26;20.60;85.70
4324;DHT22;2175;51.018;6.994;2023-05-19T16:27:51;20.60;83.70
4324;DHT22;2175;51.018;6.994;2023-05-19T16:30:17;20.50;83.60
4324;DHT22;2175;51.018;6.994;2023-05-19T16:32:43;20.40;82.00
4324;DHT22;2175;51.018;6.994;2023-05-19T16:35:09;20.40;81.90
4324;DHT22;2175;51.018;6.994;2023-05-19T16:37:34;20.40;84.50
4324;DHT22;2175;51.018;6.994;2023-05-19T16:40:00;20.40;85.50
4324;DHT22;2175;51.018;6.994;2023-05-19T16:42:25;20.40;83.20
4324;DHT22;2175;51.018;6.994;2023-05-19T16:44:52;20.20;83.20
4324;DHT22;2175;51.018;6.994;2023-05-19T16:47:18;20.20;82.60
4324;DHT22;2175;51.018;6.994;2023-05-19T16:49:43;20.30;82.60